sensor_id;sensor_type;location;lat;lon;timestamp;temperature;humidity
72604;DHT22;60645;56.968;24.196;2023-02-11T00:01:06;1.40;85.00
72604;DHT22;60645;56.968;24.196;2023-02-11T00:03:33;1.30;85.20
72604;DHT22;60645;56.968;24.196;2023-02-11T00:06:03;1.30;85.50
72604;DHT22;60645;56.968;24.196;2023-02-11T00:08:30;1.50;85.80
72604;DHT22;60645;56.968;24.196;2023-02-11T00:10:57;1.80;86.30
72604;DHT22;60645;56.968;24.196;2023-02-11T00:13:25;1.30;87.00
72604;DHT22;60645;56.968;24.196;2023-02-11T00:15:53;1.50;88.00
72604;DHT22;60645;56.968;24.196;2023-02-11T00:18:20;1.50;88.50
72604;DHT22;60645;56.968;24.196;2023-02-11T00:20:47;1.40;89.00
72604;DHT22;60645;56.968;24.196;2023-02-11T00:23:14;1.20;89.40
72604;DHT22;60645;56.968;24.196;2023-02-11T00:25:42;1.40;89.90
72604;DHT22;60645;56.968;24.196;2023-02-11T00:28:10;1.30;89.80
72604;DHT22;60645;56.968;24.196;2023-02-11T00:30:37;1.20;89.80
72604;DHT22;60645;56.968;24.196;2023-02-11T00:33:04;1.40;90.20
72604;DHT22;60645;56.968;24.196;2023-02-11T00:35:31;1.20;90.30
72604;DHT22;60645;56.968;24.196;2023-02-11T00:37:58;1.60;90.50
72604;DHT22;60645;56.968;24.196;2023-02-11T00:40:25;1.40;90.50
72604;DHT22;60645;56.968;24.196;2023-02-11T00:42:52;1.30;90.70
72604;DHT22;60645;56.968;24.196;2023-02-11T00:45:19;1.40;90.60
72604;DHT22;60645;56.968;24.196;2023-02-11T00:47:47;1.40;90.90
72604;DHT22;60645;56.968;24.196;2023-02-11T00:50:14;1.40;90.80
72604;DHT22;60645;56.968;24.196;2023-02-11T00:52:41;1.50;91.10
72604;DHT22;60645;56.968;24.196;2023-02-11T00:55:08;1.30;91.10
72604;DHT22;60645;56.968;24.196;2023-02-11T00:57:35;1.30;91.20
72604;DHT22;60645;56.968;24.196;2023-02-11T01:00:05;1.40;91.00
72604;DHT22;60645;56.968;24.196;2023-02-11T01:02:32;1.60;90.90
72604;DHT22;60645;56.968;24.196;2023-02-11T01:04:59;1.50;90.60
72604;DHT22;60645;56.968;24.196;2023-02-11T01:07:27;1.50;90.60
72604;DHT22;60645;56.968;24.196;2023-02-11T01:09:54;1.70;90.50
72604;DHT22;60645;56.968;24.196;2023-02-11T01:12:21;1.40;90.50
72604;DHT22;60645;56.968;24.196;2023-02-11T01:14:48;1.80;90.20
72604;DHT22;60645;56.968;24.196;2023-02-11T01:17:15;1.70;90.30
72604;DHT22;60645;56.968;24.196;2023-02-11T01:19:42;1.50;90.50
72604;DHT22;60645;56.968;24.196;2023-02-11T01:22:09;1.60;90.60
72604;DHT22;60645;56.968;24.196;2023-02-11T01:24:36;1.70;90.60
72604;DHT22;60645;56.968;24.196;2023-02-11T01:27:03;1.90;90.60
72604;DHT22;60645;56.968;24.196;2023-02-11T01:29:30;1.70;90.40
72604;DHT22;60645;56.968;24.196;2023-02-11T01:31:57;2.00;90.50
72604;DHT22;60645;56.968;24.196;2023-02-11T01:34:24;1.90;90.10
72604;DHT22;60645;56.968;24.196;2023-02-11T01:36:53;1.80;90.20
72604;DHT22;60645;56.968;24.196;2023-02-11T01:39:21;1.90;90.20
72604;DHT22;60645;56.968;24.196;2023-02-11T01:41:48;2.10;90.30
72604;DHT22;60645;56.968;24.196;2023-02-11T01:44:31;2.00;90.60
72604;DHT22;60645;56.968;24.196;2023-02-11T01:46:59;2.10;90.80
72604;DHT22;60645;56.968;24.196;2023-02-11T01:49:29;1.90;91.70
72604;DHT22;60645;56.968;24.196;2023-02-11T01:54:58;1.80;92.20
72604;DHT22;60645;56.968;24.196;2023-02-11T01:57:50;1.80;93.00
72604;DHT22;60645;56.968;24.196;2023-02-11T02:00:28;1.80;93.20
72604;DHT22;60645;56.968;24.196;2023-02-11T02:03:01;1.80;93.70
72604;DHT22;60645;56.968;24.196;2023-02-11T02:08:48;1.70;94.40
72604;DHT22;60645;56.968;24.196;2023-02-11T02:11:17;1.50;94.90
72604;DHT22;60645;56.968;24.196;2023-02-11T02:13:44;1.60;95.20
72604;DHT22;60645;56.968;24.196;2023-02-11T02:16:13;1.70;95.20
72604;DHT22;60645;56.968;24.196;2023-02-11T02:18:55;1.50;95.70
72604;DHT22;60645;56.968;24.196;2023-02-11T02:38:55;1.70;96.20
72604;DHT22;60645;56.968;24.196;2023-02-11T02:41:30;1.80;96.30
72604;DHT22;60645;56.968;24.196;2023-02-11T02:43:58;1.80;96.30
72604;DHT22;60645;56.968;24.196;2023-02-11T02:46:29;1.80;96.40
72604;DHT22;60645;56.968;24.196;2023-02-11T02:48:57;1.70;96.30
72604;DHT22;60645;56.968;24.196;2023-02-11T02:56:54;1.90;96.40
72604;DHT22;60645;56.968;24.196;2023-02-11T03:02:35;1.80;96.30
72604;DHT22;60645;56.968;24.196;2023-02-11T03:05:26;1.90;96.20
72604;DHT22;60645;56.968;24.196;2023-02-11T03:07:59;1.80;96.30
72604;DHT22;60645;56.968;24.196;2023-02-11T03:10:31;2.00;96.30
72604;DHT22;60645;56.968;24.196;2023-02-11T03:13:01;1.80;96.20
72604;DHT22;60645;56.968;24.196;2023-02-11T03:15:32;2.00;95.90
72604;DHT22;60645;56.968;24.196;2023-02-11T03:18:02;2.10;96.10
72604;DHT22;60645;56.968;24.196;2023-02-11T03:20:32;1.90;95.90
72604;DHT22;60645;56.968;24.196;2023-02-11T03:23:07;2.00;96.10
72604;DHT22;60645;56.968;24.196;2023-02-11T03:25:41;1.90;96.00
72604;DHT22;60645;56.968;24.196;2023-02-11T03:28:17;2.10;96.10
72604;DHT22;60645;56.968;24.196;2023-02-11T03:34:05;2.10;96.20
72604;DHT22;60645;56.968;24.196;2023-02-11T03:36:53;2.10;96.30
72604;DHT22;60645;56.968;24.196;2023-02-11T03:39:27;1.90;96.30
72604;DHT22;60645;56.968;24.196;2023-02-11T03:41:57;1.90;96.70
72604;DHT22;60645;56.968;24.196;2023-02-11T03:44:28;1.90;96.70
72604;DHT22;60645;56.968;24.196;2023-02-11T03:46:56;1.80;96.50
72604;DHT22;60645;56.968;24.196;2023-02-11T03:49:26;2.00;96.30
72604;DHT22;60645;56.968;24.196;2023-02-11T03:51:55;1.90;96.40
72604;DHT22;60645;56.968;24.196;2023-02-11T03:54:28;1.90;96.50
72604;DHT22;60645;56.968;24.196;2023-02-11T03:56:58;1.80;96.60
72604;DHT22;60645;56.968;24.196;2023-02-11T03:59:26;1.80;96.70
72604;DHT22;60645;56.968;24.196;2023-02-11T04:01:53;1.90;96.70
72604;DHT22;60645;56.968;24.196;2023-02-11T04:04:20;1.80;96.70
72604;DHT22;60645;56.968;24.196;2023-02-11T04:06:47;1.80;96.60
72604;DHT22;60645;56.968;24.196;2023-02-11T04:09:14;1.80;96.50
72604;DHT22;60645;56.968;24.196;2023-02-11T04:11:41;1.90;96.60
72604;DHT22;60645;56.968;24.196;2023-02-11T04:14:08;1.80;96.60
72604;DHT22;60645;56.968;24.196;2023-02-11T04:16:35;1.70;96.70
72604;DHT22;60645;56.968;24.196;2023-02-11T04:19:02;1.90;97.00
72604;DHT22;60645;56.968;24.196;2023-02-11T04:21:29;1.90;96.80
72604;DHT22;60645;56.968;24.196;2023-02-11T04:23:56;1.80;96.90
72604;DHT22;60645;56.968;24.196;2023-02-11T04:26:23;1.80;96.80
72604;DHT22;60645;56.968;24.196;2023-02-11T04:28:50;1.70;96.90
72604;DHT22;60645;56.968;24.196;2023-02-11T04:31:16;1.70;97.00
72604;DHT22;60645;56.968;24.196;2023-02-11T04:33:43;1.80;97.20
72604;DHT22;60645;56.968;24.196;2023-02-11T04:36:10;1.80;97.40
72604;DHT22;60645;56.968;24.196;2023-02-11T04:38:38;1.80;97.40
72604;DHT22;60645;56.968;24.196;2023-02-11T04:41:05;1.80;97.30
72604;DHT22;60645;56.968;24.196;2023-02-11T04:43:32;1.70;97.40
72604;DHT22;60645;56.968;24.196;2023-02-11T04:45:58;1.80;97.50
72604;DHT22;60645;56.968;24.196;2023-02-11T04:48:25;1.90;97.80
72604;DHT22;60645;56.968;24.196;2023-02-11T04:50:52;1.90;97.60
72604;DHT22;60645;56.968;24.196;2023-02-11T04:53:19;1.80;97.50
72604;DHT22;60645;56.968;24.196;2023-02-11T04:55:49;1.90;97.30
72604;DHT22;60645;56.968;24.196;2023-02-11T04:58:17;2.00;97.60
72604;DHT22;60645;56.968;24.196;2023-02-11T05:00:45;1.90;97.40
72604;DHT22;60645;56.968;24.196;2023-02-11T05:03:12;1.80;97.50
72604;DHT22;60645;56.968;24.196;2023-02-11T05:05:41;1.90;97.70
72604;DHT22;60645;56.968;24.196;2023-02-11T05:08:09;1.90;97.80
72604;DHT22;60645;56.968;24.196;2023-02-11T05:10:36;2.00;97.60
72604;DHT22;60645;56.968;24.196;2023-02-11T05:13:03;1.90;97.80
72604;DHT22;60645;56.968;24.196;2023-02-11T05:15:30;2.00;97.50
72604;DHT22;60645;56.968;24.196;2023-02-11T05:17:57;2.00;97.50
72604;DHT22;60645;56.968;24.196;2023-02-11T05:20:24;1.90;97.50
72604;DHT22;60645;56.968;24.196;2023-02-11T05:22:51;1.90;97.50
72604;DHT22;60645;56.968;24.196;2023-02-11T05:25:18;2.10;97.50
72604;DHT22;60645;56.968;24.196;2023-02-11T05:27:46;2.10;97.60
72604;DHT22;60645;56.968;24.196;2023-02-11T05:30:13;2.10;97.50
72604;DHT22;60645;56.968;24.196;2023-02-11T05:32:40;2.10;97.50
72604;DHT22;60645;56.968;24.196;2023-02-11T05:35:07;2.10;97.60
72604;DHT22;60645;56.968;24.196;2023-02-11T05:37:35;2.20;97.70
72604;DHT22;60645;56.968;24.196;2023-02-11T05:40:02;2.10;97.50
72604;DHT22;60645;56.968;24.196;2023-02-11T05:42:29;2.30;97.60
72604;DHT22;60645;56.968;24.196;2023-02-11T05:44:56;2.30;97.70
72604;DHT22;60645;56.968;24.196;2023-02-11T05:47:23;2.20;97.70
72604;DHT22;60645;56.968;24.196;2023-02-11T05:49:50;2.10;97.80
72604;DHT22;60645;56.968;24.196;2023-02-11T05:52:19;2.20;98.00
72604;DHT22;60645;56.968;24.196;2023-02-11T05:54:46;2.30;97.80
72604;DHT22;60645;56.968;24.196;2023-02-11T05:57:13;2.50;97.80
72604;DHT22;60645;56.968;24.196;2023-02-11T05:59:41;2.30;98.00
72604;DHT22;60645;56.968;24.196;2023-02-11T06:02:09;2.30;97.80
72604;DHT22;60645;56.968;24.196;2023-02-11T06:04:36;2.40;97.90
72604;DHT22;60645;56.968;24.196;2023-02-11T06:07:03;2.40;97.80
72604;DHT22;60645;56.968;24.196;2023-02-11T06:09:30;2.50;97.80
72604;DHT22;60645;56.968;24.196;2023-02-11T06:11:57;2.50;97.90
72604;DHT22;60645;56.968;24.196;2023-02-11T06:14:24;2.60;98.10
72604;DHT22;60645;56.968;24.196;2023-02-11T06:16:51;2.70;97.90
72604;DHT22;60645;56.968;24.196;2023-02-11T06:19:18;2.70;98.10
72604;DHT22;60645;56.968;24.196;2023-02-11T06:21:44;2.60;97.90
72604;DHT22;60645;56.968;24.196;2023-02-11T06:24:11;2.60;97.90
72604;DHT22;60645;56.968;24.196;2023-02-11T06:26:38;2.30;98.30
72604;DHT22;60645;56.968;24.196;2023-02-11T06:29:05;2.80;98.30
72604;DHT22;60645;56.968;24.196;2023-02-11T06:31:32;2.50;98.30
72604;DHT22;60645;56.968;24.196;2023-02-11T06:34:00;2.60;98.30
72604;DHT22;60645;56.968;24.196;2023-02-11T06:36:26;2.70;98.60
72604;DHT22;60645;56.968;24.196;2023-02-11T06:38:54;2.70;98.50
72604;DHT22;60645;56.968;24.196;2023-02-11T06:41:21;2.70;98.90
72604;DHT22;60645;56.968;24.196;2023-02-11T06:43:48;2.70;98.80
72604;DHT22;60645;56.968;24.196;2023-02-11T06:46:15;2.60;98.70
72604;DHT22;60645;56.968;24.196;2023-02-11T06:48:42;2.90;98.90
72604;DHT22;60645;56.968;24.196;2023-02-11T06:51:11;2.90;98.90
72604;DHT22;60645;56.968;24.196;2023-02-11T06:53:44;2.90;99.20
72604;DHT22;60645;56.968;24.196;2023-02-11T06:56:17;2.80;99.20
72604;DHT22;60645;56.968;24.196;2023-02-11T06:58:44;3.10;99.30
72604;DHT22;60645;56.968;24.196;2023-02-11T07:01:13;3.00;99.30
72604;DHT22;60645;56.968;24.196;2023-02-11T07:03:43;3.10;99.30
72604;DHT22;60645;56.968;24.196;2023-02-11T07:06:18;3.10;99.40
72604;DHT22;60645;56.968;24.196;2023-02-11T07:08:46;2.80;99.50
72604;DHT22;60645;56.968;24.196;2023-02-11T07:11:19;3.10;99.50
72604;DHT22;60645;56.968;24.196;2023-02-11T07:13:46;3.00;99.50
72604;DHT22;60645;56.968;24.196;2023-02-11T07:16:15;3.00;99.80
72604;DHT22;60645;56.968;24.196;2023-02-11T07:18:43;2.90;99.80
72604;DHT22;60645;56.968;24.196;2023-02-11T07:21:11;3.10;99.90
72604;DHT22;60645;56.968;24.196;2023-02-11T07:23:39;3.20;99.70
72604;DHT22;60645;56.968;24.196;2023-02-11T07:26:11;3.30;99.80
72604;DHT22;60645;56.968;24.196;2023-02-11T07:28:39;3.10;99.60
72604;DHT22;60645;56.968;24.196;2023-02-11T07:31:12;3.00;99.80
72604;DHT22;60645;56.968;24.196;2023-02-11T07:33:40;3.40;99.90
72604;DHT22;60645;56.968;24.196;2023-02-11T07:36:09;3.30;99.90
72604;DHT22;60645;56.968;24.196;2023-02-11T07:38:36;3.30;99.90
72604;DHT22;60645;56.968;24.196;2023-02-11T07:41:06;3.40;99.80
72604;DHT22;60645;56.968;24.196;2023-02-11T07:43:35;3.20;99.90
72604;DHT22;60645;56.968;24.196;2023-02-11T07:46:14;3.60;99.90
72604;DHT22;60645;56.968;24.196;2023-02-11T07:48:42;3.30;99.90
72604;DHT22;60645;56.968;24.196;2023-02-11T07:51:12;3.40;99.90
72604;DHT22;60645;56.968;24.196;2023-02-11T07:53:39;3.50;99.80
72604;DHT22;60645;56.968;24.196;2023-02-11T07:56:07;3.50;99.90
72604;DHT22;60645;56.968;24.196;2023-02-11T07:58:35;3.40;99.90
72604;DHT22;60645;56.968;24.196;2023-02-11T08:01:07;3.70;99.90
72604;DHT22;60645;56.968;24.196;2023-02-11T08:03:35;3.70;99.90
72604;DHT22;60645;56.968;24.196;2023-02-11T08:06:06;3.40;99.90
72604;DHT22;60645;56.968;24.196;2023-02-11T08:08:34;3.60;99.90
72604;DHT22;60645;56.968;24.196;2023-02-11T08:11:10;3.60;99.90
72604;DHT22;60645;56.968;24.196;2023-02-11T08:13:38;3.70;99.90
72604;DHT22;60645;56.968;24.196;2023-02-11T08:16:06;3.70;99.90
72604;DHT22;60645;56.968;24.196;2023-02-11T08:18:33;3.80;99.90
72604;DHT22;60645;56.968;24.196;2023-02-11T08:21:08;3.80;99.90
72604;DHT22;60645;56.968;24.196;2023-02-11T08:23:38;3.90;99.90
72604;DHT22;60645;56.968;24.196;2023-02-11T08:26:09;3.90;99.90
72604;DHT22;60645;56.968;24.196;2023-02-11T08:28:37;3.90;99.90
72604;DHT22;60645;56.968;24.196;2023-02-11T08:31:06;3.90;99.90
72604;DHT22;60645;56.968;24.196;2023-02-11T08:33:33;4.10;99.90
72604;DHT22;60645;56.968;24.196;2023-02-11T08:36:00;4.10;99.90
72604;DHT22;60645;56.968;24.196;2023-02-11T08:38:29;4.00;99.90
72604;DHT22;60645;56.968;24.196;2023-02-11T08:40:58;4.20;99.90
72604;DHT22;60645;56.968;24.196;2023-02-11T08:43:25;4.10;99.90
72604;DHT22;60645;56.968;24.196;2023-02-11T08:45:52;4.30;99.90
72604;DHT22;60645;56.968;24.196;2023-02-11T08:48:19;4.30;99.80
72604;DHT22;60645;56.968;24.196;2023-02-11T08:50:46;4.40;99.80
72604;DHT22;60645;56.968;24.196;2023-02-11T08:53:13;4.50;99.70
72604;DHT22;60645;56.968;24.196;2023-02-11T08:55:50;4.30;99.70
72604;DHT22;60645;56.968;24.196;2023-02-11T08:58:18;4.40;99.30
72604;DHT22;60645;56.968;24.196;2023-02-11T09:00:45;4.50;99.20
72604;DHT22;60645;56.968;24.196;2023-02-11T09:03:13;4.20;99.40
72604;DHT22;60645;56.968;24.196;2023-02-11T09:05:45;4.20;99.30
72604;DHT22;60645;56.968;24.196;2023-02-11T09:08:13;4.40;99.40
72604;DHT22;60645;56.968;24.196;2023-02-11T09:10:40;4.40;98.90
72604;DHT22;60645;56.968;24.196;2023-02-11T09:13:07;4.50;99.10
72604;DHT22;60645;56.968;24.196;2023-02-11T09:15:34;4.60;98.90
72604;DHT22;60645;56.968;24.196;2023-02-11T09:18:03;4.60;98.90
72604;DHT22;60645;56.968;24.196;2023-02-11T09:20:30;4.40;98.80
72604;DHT22;60645;56.968;24.196;2023-02-11T09:22:58;4.60;98.90
72604;DHT22;60645;56.968;24.196;2023-02-11T09:25:25;4.60;99.00
72604;DHT22;60645;56.968;24.196;2023-02-11T09:27:52;4.50;99.00
72604;DHT22;60645;56.968;24.196;2023-02-11T09:30:19;4.60;98.80
72604;DHT22;60645;56.968;24.196;2023-02-11T09:32:47;4.60;98.60
72604;DHT22;60645;56.968;24.196;2023-02-11T09:35:14;4.70;98.50
72604;DHT22;60645;56.968;24.196;2023-02-11T09:37:41;4.70;98.30
72604;DHT22;60645;56.968;24.196;2023-02-11T09:40:08;4.80;98.30
72604;DHT22;60645;56.968;24.196;2023-02-11T09:45:27;4.80;97.60
72604;DHT22;60645;56.968;24.196;2023-02-11T09:50:42;5.00;97.60
72604;DHT22;60645;56.968;24.196;2023-02-11T09:53:22;5.00;97.70
72604;DHT22;60645;56.968;24.196;2023-02-11T09:55:58;5.00;97.50
72604;DHT22;60645;56.968;24.196;2023-02-11T10:06:38;4.70;96.80
72604;DHT22;60645;56.968;24.196;2023-02-11T10:17:42;4.60;97.00
72604;DHT22;60645;56.968;24.196;2023-02-11T10:20:24;4.60;96.50
72604;DHT22;60645;56.968;24.196;2023-02-11T10:22:58;4.30;97.00
72604;DHT22;60645;56.968;24.196;2023-02-11T10:25:38;4.30;96.30
72604;DHT22;60645;56.968;24.196;2023-02-11T10:28:13;4.10;96.60
72604;DHT22;60645;56.968;24.196;2023-02-11T10:31:06;4.00;97.30
72604;DHT22;60645;56.968;24.196;2023-02-11T10:33:55;3.90;96.90
72604;DHT22;60645;56.968;24.196;2023-02-11T10:36:29;3.80;97.20
72604;DHT22;60645;56.968;24.196;2023-02-11T10:39:08;3.70;97.70
72604;DHT22;60645;56.968;24.196;2023-02-11T10:41:40;3.80;97.30
72604;DHT22;60645;56.968;24.196;2023-02-11T10:44:21;3.80;97.20
72604;DHT22;60645;56.968;24.196;2023-02-11T10:46:50;3.70;97.00
72604;DHT22;60645;56.968;24.196;2023-02-11T10:49:44;3.80;96.70
72604;DHT22;60645;56.968;24.196;2023-02-11T10:55:22;3.50;96.50
72604;DHT22;60645;56.968;24.196;2023-02-11T10:57:58;3.50;96.20
72604;DHT22;60645;56.968;24.196;2023-02-11T11:00:33;3.50;96.20
72604;DHT22;60645;56.968;24.196;2023-02-11T11:03:04;3.40;96.00
72604;DHT22;60645;56.968;24.196;2023-02-11T11:05:44;3.20;96.00
72604;DHT22;60645;56.968;24.196;2023-02-11T11:08:11;3.20;95.20
72604;DHT22;60645;56.968;24.196;2023-02-11T11:10:44;3.30;95.00
72604;DHT22;60645;56.968;24.196;2023-02-11T11:13:36;3.60;93.20
72604;DHT22;60645;56.968;24.196;2023-02-11T11:18:34;3.70;89.40
72604;DHT22;60645;56.968;24.196;2023-02-11T11:23:56;3.40;91.10
72604;DHT22;60645;56.968;24.196;2023-02-11T11:26:37;3.50;91.00
72604;DHT22;60645;56.968;24.196;2023-02-11T11:29:09;3.40;91.00
72604;DHT22;60645;56.968;24.196;2023-02-11T11:32:10;3.90;91.40
72604;DHT22;60645;56.968;24.196;2023-02-11T11:34:42;4.00;90.40
72604;DHT22;60645;56.968;24.196;2023-02-11T11:37:21;4.30;88.60
72604;DHT22;60645;56.968;24.196;2023-02-11T11:42:30;3.60;90.00
72604;DHT22;60645;56.968;24.196;2023-02-11T11:50:43;3.40;90.30
72604;DHT22;60645;56.968;24.196;2023-02-11T11:53:30;3.20;90.60
72604;DHT22;60645;56.968;24.196;2023-02-11T11:58:31;3.10;90.40
72604;DHT22;60645;56.968;24.196;2023-02-11T12:04:32;2.80;91.10
72604;DHT22;60645;56.968;24.196;2023-02-11T12:07:41;2.90;91.00
72604;DHT22;60645;56.968;24.196;2023-02-11T12:16:14;3.10;90.60
72604;DHT22;60645;56.968;24.196;2023-02-11T12:19:10;2.80;90.70
72604;DHT22;60645;56.968;24.196;2023-02-11T12:27:10;2.50;91.50
72604;DHT22;60645;56.968;24.196;2023-02-11T12:38:04;2.10;90.80
72604;DHT22;60645;56.968;24.196;2023-02-11T12:54:19;2.30;90.80
72604;DHT22;60645;56.968;24.196;2023-02-11T12:57:16;2.30;91.10
72604;DHT22;60645;56.968;24.196;2023-02-11T12:59:59;2.00;90.60
72604;DHT22;60645;56.968;24.196;2023-02-11T13:02:46;2.30;90.30
72604;DHT22;60645;56.968;24.196;2023-02-11T13:05:37;2.10;89.90
72604;DHT22;60645;56.968;24.196;2023-02-11T13:11:04;2.30;91.00
72604;DHT22;60645;56.968;24.196;2023-02-11T13:13:52;2.30;90.90
72604;DHT22;60645;56.968;24.196;2023-02-11T13:22:25;2.00;91.30
72604;DHT22;60645;56.968;24.196;2023-02-11T13:28:00;2.00;91.20
72604;DHT22;60645;56.968;24.196;2023-02-11T13:30:33;2.10;90.60
72604;DHT22;60645;56.968;24.196;2023-02-11T13:33:04;2.20;88.50
72604;DHT22;60645;56.968;24.196;2023-02-11T13:35:39;2.20;87.20
72604;DHT22;60645;56.968;24.196;2023-02-11T13:38:21;2.20;86.70
72604;DHT22;60645;56.968;24.196;2023-02-11T13:43:41;2.20;85.30
72604;DHT22;60645;56.968;24.196;2023-02-11T13:46:13;2.20;84.10
72604;DHT22;60645;56.968;24.196;2023-02-11T13:48:48;2.10;85.20
72604;DHT22;60645;56.968;24.196;2023-02-11T13:51:18;2.20;84.80
72604;DHT22;60645;56.968;24.196;2023-02-11T13:53:59;2.20;84.80
72604;DHT22;60645;56.968;24.196;2023-02-11T13:56:28;2.20;84.90
72604;DHT22;60645;56.968;24.196;2023-02-11T13:58:57;2.00;85.00
72604;DHT22;60645;56.968;24.196;2023-02-11T14:04:33;1.70;85.60
72604;DHT22;60645;56.968;24.196;2023-02-11T14:13:35;1.50;85.70
72604;DHT22;60645;56.968;24.196;2023-02-11T14:18:57;1.50;85.20
72604;DHT22;60645;56.968;24.196;2023-02-11T14:35:13;1.10;85.70
72604;DHT22;60645;56.968;24.196;2023-02-11T14:43:23;1.40;85.10
72604;DHT22;60645;56.968;24.196;2023-02-11T14:45:55;1.30;85.20
72604;DHT22;60645;56.968;24.196;2023-02-11T14:48:31;1.30;85.20
72604;DHT22;60645;56.968;24.196;2023-02-11T14:51:07;1.40;85.60
72604;DHT22;60645;56.968;24.196;2023-02-11T14:53:37;1.60;85.30
72604;DHT22;60645;56.968;24.196;2023-02-11T14:56:17;1.30;85.20
72604;DHT22;60645;56.968;24.196;2023-02-11T14:58:49;1.40;85.20
72604;DHT22;60645;56.968;24.196;2023-02-11T15:03:54;1.30;84.80
72604;DHT22;60645;56.968;24.196;2023-02-11T15:06:29;1.40;85.10
72604;DHT22;60645;56.968;24.196;2023-02-11T15:08:58;1.50;84.80
72604;DHT22;60645;56.968;24.196;2023-02-11T15:11:29;1.50;84.80
72604;DHT22;60645;56.968;24.196;2023-02-11T15:14:00;1.50;85.10
72604;DHT22;60645;56.968;24.196;2023-02-11T15:16:32;1.60;84.70
72604;DHT22;60645;56.968;24.196;2023-02-11T15:19:04;1.40;84.30
72604;DHT22;60645;56.968;24.196;2023-02-11T15:21:33;1.40;84.40
72604;DHT22;60645;56.968;24.196;2023-02-11T15:24:22;1.30;84.30
72604;DHT22;60645;56.968;24.196;2023-02-11T15:29:24;1.40;84.70
72604;DHT22;60645;56.968;24.196;2023-02-11T15:32:15;1.70;84.50
72604;DHT22;60645;56.968;24.196;2023-02-11T15:34:43;1.40;84.80
72604;DHT22;60645;56.968;24.196;2023-02-11T15:39:49;1.40;84.10
72604;DHT22;60645;56.968;24.196;2023-02-11T15:45:28;1.40;84.20
72604;DHT22;60645;56.968;24.196;2023-02-11T15:50:31;1.10;82.90
72604;DHT22;60645;56.968;24.196;2023-02-11T15:53:02;0.90;82.70
72604;DHT22;60645;56.968;24.196;2023-02-11T15:55:30;1.00;82.50
72604;DHT22;60645;56.968;24.196;2023-02-11T15:57:59;1.20;82.40
72604;DHT22;60645;56.968;24.196;2023-02-11T16:00:37;1.20;82.20
72604;DHT22;60645;56.968;24.196;2023-02-11T16:03:22;0.90;82.40
72604;DHT22;60645;56.968;24.196;2023-02-11T16:05:50;0.90;83.00
72604;DHT22;60645;56.968;24.196;2023-02-11T16:08:25;1.00;81.90
72604;DHT22;60645;56.968;24.196;2023-02-11T16:11:02;1.00;82.10
72604;DHT22;60645;56.968;24.196;2023-02-11T16:13:45;1.00;81.80
72604;DHT22;60645;56.968;24.196;2023-02-11T16:16:23;1.00;82.30
72604;DHT22;60645;56.968;24.196;2023-02-11T16:18:57;0.80;82.40
72604;DHT22;60645;56.968;24.196;2023-02-11T16:21:36;1.00;82.80
72604;DHT22;60645;56.968;24.196;2023-02-11T16:24:17;0.80;82.60
72604;DHT22;60645;56.968;24.196;2023-02-11T16:26:48;1.00;83.10
72604;DHT22;60645;56.968;24.196;2023-02-11T16:29:24;0.80;83.10
72604;DHT22;60645;56.968;24.196;2023-02-11T16:31:53;0.90;83.40
72604;DHT22;60645;56.968;24.196;2023-02-11T16:34:23;0.90;83.80
72604;DHT22;60645;56.968;24.196;2023-02-11T16:36:51;0.60;84.30
72604;DHT22;60645;56.968;24.196;2023-02-11T16:39:19;0.50;84.70
72604;DHT22;60645;56.968;24.196;2023-02-11T16:41:50;0.30;85.00
72604;DHT22;60645;56.968;24.196;2023-02-11T16:44:18;0.40;84.70
72604;DHT22;60645;56.968;24.196;2023-02-11T16:46:45;0.40;85.00
72604;DHT22;60645;56.968;24.196;2023-02-11T16:49:20;0.40;84.80
72604;DHT22;60645;56.968;24.196;2023-02-11T16:51:50;0.40;85.30
72604;DHT22;60645;56.968;24.196;2023-02-11T16:54:18;0.40;85.20
72604;DHT22;60645;56.968;24.196;2023-02-11T16:56:45;0.30;85.70
72604;DHT22;60645;56.968;24.196;2023-02-11T16:59:12;0.30;85.60
72604;DHT22;60645;56.968;24.196;2023-02-11T17:01:40;0.30;85.70
72604;DHT22;60645;56.968;24.196;2023-02-11T17:04:20;0.10;85.70
72604;DHT22;60645;56.968;24.196;2023-02-11T17:06:49;0.10;86.10
72604;DHT22;60645;56.968;24.196;2023-02-11T17:09:22;0.10;86.60
72604;DHT22;60645;56.968;24.196;2023-02-11T17:11:49;0.10;86.00
72604;DHT22;60645;56.968;24.196;2023-02-11T17:14:17;0.10;86.10
72604;DHT22;60645;56.968;24.196;2023-02-11T17:16:45;0.10;85.90
72604;DHT22;60645;56.968;24.196;2023-02-11T17:19:16;0.00;85.90
72604;DHT22;60645;56.968;24.196;2023-02-11T17:21:46;0.10;85.00
72604;DHT22;60645;56.968;24.196;2023-02-11T17:24:13;0.10;85.30
72604;DHT22;60645;56.968;24.196;2023-02-11T17:26:41;0.10;85.00
72604;DHT22;60645;56.968;24.196;2023-02-11T17:29:10;0.00;85.00
72604;DHT22;60645;56.968;24.196;2023-02-11T17:31:39;0.10;84.90
72604;DHT22;60645;56.968;24.196;2023-02-11T17:34:06;0.10;85.20
72604;DHT22;60645;56.968;24.196;2023-02-11T17:36:33;0.00;85.50
72604;DHT22;60645;56.968;24.196;2023-02-11T17:39:02;0.00;85.40
72604;DHT22;60645;56.968;24.196;2023-02-11T17:41:32;0.00;85.50
72604;DHT22;60645;56.968;24.196;2023-02-11T17:44:00;0.00;85.80
72604;DHT22;60645;56.968;24.196;2023-02-11T17:46:27;0.20;86.20
72604;DHT22;60645;56.968;24.196;2023-02-11T17:48:56;-0.10;86.30
72604;DHT22;60645;56.968;24.196;2023-02-11T17:53:51;0.00;85.90
72604;DHT22;60645;56.968;24.196;2023-02-11T17:56:19;0.00;86.10
72604;DHT22;60645;56.968;24.196;2023-02-11T17:58:46;0.00;85.80
72604;DHT22;60645;56.968;24.196;2023-02-11T18:01:13;0.10;85.50
72604;DHT22;60645;56.968;24.196;2023-02-11T18:03:40;0.10;85.30
72604;DHT22;60645;56.968;24.196;2023-02-11T18:06:07;0.10;84.90
72604;DHT22;60645;56.968;24.196;2023-02-11T18:08:34;0.00;85.00
72604;DHT22;60645;56.968;24.196;2023-02-11T18:11:02;0.10;85.00
72604;DHT22;60645;56.968;24.196;2023-02-11T18:13:29;0.00;84.70
72604;DHT22;60645;56.968;24.196;2023-02-11T18:16:01;0.10;84.90
72604;DHT22;60645;56.968;24.196;2023-02-11T18:18:29;0.20;84.80
72604;DHT22;60645;56.968;24.196;2023-02-11T18:21:02;0.20;84.80
72604;DHT22;60645;56.968;24.196;2023-02-11T18:23:34;0.40;85.30
72604;DHT22;60645;56.968;24.196;2023-02-11T18:26:01;0.40;85.50
72604;DHT22;60645;56.968;24.196;2023-02-11T18:28:28;0.50;85.80
72604;DHT22;60645;56.968;24.196;2023-02-11T18:30:57;0.60;85.80
72604;DHT22;60645;56.968;24.196;2023-02-11T18:33:25;0.50;85.70
72604;DHT22;60645;56.968;24.196;2023-02-11T18:35:52;0.50;85.80
72604;DHT22;60645;56.968;24.196;2023-02-11T18:38:19;0.50;85.40
72604;DHT22;60645;56.968;24.196;2023-02-11T18:40:48;0.50;85.30
72604;DHT22;60645;56.968;24.196;2023-02-11T18:43:17;0.50;85.20
72604;DHT22;60645;56.968;24.196;2023-02-11T18:45:47;0.40;85.30
72604;DHT22;60645;56.968;24.196;2023-02-11T18:48:16;0.40;85.30